Flight Track Log - Related Links

Times and Time Zones

All times are in EDT time to prevent confusion due to time zone crossing. See the EJA396 flight status page for this flight to view local times or setup timezone preferences in your user account.

Time Position Orientation Groundspeed Altitude Reporting Facility
EDT Latitude Longitude Course Direction KTS MPH feet Rate Location/Type
Tue 12:31:09 PM 33.8167 -116.3333 331° Northwest 222 255 4,200  Level Southern California TRACON
Tue 12:32:09 PM 33.8667 -116.3667 331° Northwest 238 274 7,300 3,000 Climbing Southern California TRACON
Tue 12:32:39 PM 33.8997 -116.3869 333° Northwest 250 288 8,700 2,935 Climbing Los Angeles Center
Tue 12:33:41 PM 33.9644 -116.4283 332° Northwest 257 296 11,800 2,032 Climbing Los Angeles Center
Tue 12:34:43 PM 34.0447 -116.4817 331° Northwest 306 352 12,900 1,548 Climbing Los Angeles Center
Tue 12:35:45 PM 34.1356 -116.5353 334° Northwest 357 411 15,000 2,419 Climbing Los Angeles Center
Tue 12:36:47 PM 34.2339 -116.5708 343° North 367 422 17,900 3,097 Climbing Los Angeles Center
Tue 12:37:49 PM 34.3156 -116.6758 313° West 369 425 21,400 2,710 Climbing Los Angeles Center
Tue 12:38:51 PM 34.3586 -116.7875 295° West 371 427 23,500 1,742 Climbing Los Angeles Center
Tue 12:39:53 PM 34.4111 -116.9067 298° West 392 451 25,000 1,452 Climbing Los Angeles Center
Tue 12:40:55 PM 34.4625 -117.0356 296° West 417 480 26,500 1,452 Climbing Los Angeles Center
Tue 12:41:57 PM 34.5153 -117.1650 296° West 428 493 28,000 1,463 Climbing Los Angeles Center
Tue 12:42:58 PM 34.5681 -117.2978 296° West 437 503 29,500 1,452 Climbing Los Angeles Center
Tue 12:44:01 PM 34.6311 -117.4561 296° West 437 503 31,000 1,104 Climbing Los Angeles Center
Tue 12:45:03 PM 34.6761 -117.5675 296° West 443 510 31,800 823 Climbing Los Angeles Center
Tue 12:46:05 PM 34.6831 -117.7517 273° West 461 531 32,700 1,016 Climbing Los Angeles Center
Tue 12:47:07 PM 34.6636 -117.8981 261° West 460 529 33,900 1,258 Climbing Los Angeles Center
Tue 12:48:09 PM 34.6833 -118.0767 278° West 451 519 35,300 1,258 Climbing Los Angeles Center
Tue 12:49:11 PM 34.7356 -118.2114 295° West 445 512 36,500 1,152 Climbing Los Angeles Center
Tue 12:50:14 PM 34.8122 -118.3242 310° West 436 502 37,700 1,152 Climbing Los Angeles Center
Tue 12:51:16 PM 34.8878 -118.4339 310° West 429 494 38,900 1,113 Climbing Los Angeles Center
Tue 12:52:18 PM 34.9775 -118.5531 313° West 419 482 40,000 532 Climbing Los Angeles Center
Tue 12:53:20 PM 35.0775 -118.6231 330° Northwest 415 478 40,000  Level Los Angeles Center
Tue 12:54:22 PM 35.1928 -118.6550 347° North 421 484 40,000  Level Los Angeles Center
Tue 12:55:24 PM 35.3092 -118.6803 350° North 424 488 40,000  Level Los Angeles Center
Tue 12:56:26 PM 35.4250 -118.7069 349° North 425 489 40,000  Level Los Angeles Center
Tue 12:57:28 PM 35.5664 -118.7364 350° North 428 493 40,000  Level Los Angeles Center
Tue 12:58:17 PM 35.6597 -118.7561 350° North 426 490 40,000  Level Oakland Center
Tue 12:59:18 PM 35.7742 -118.7822 350° North 423 487 40,000  Level Oakland Center
Tue 01:00:19 PM 35.8889 -118.8072 350° North 420 483 40,000  Level Oakland Center
Tue 01:01:20 PM 36.0019 -118.8336 349° North 417 480 40,000  Level Oakland Center
Tue 01:02:22 PM 36.1161 -118.8589 350° North 417 480 40,000  Level Oakland Center
Tue 01:03:23 PM 36.2303 -118.8839 350° North 417 480 40,000  Level Oakland Center
Tue 01:04:24 PM 36.3467 -118.9108 349° North 423 487 40,000  Level Oakland Center
Tue 01:05:26 PM 36.4617 -118.9364 350° North 422 486 40,000  Level Oakland Center
Tue 01:06:27 PM 36.5981 -118.9675 350° North 417 480 40,000  Level Oakland Center
Tue 01:07:28 PM 36.7114 -118.9931 350° North 415 478 40,000  Level Oakland Center
Tue 01:08:30 PM 36.8247 -119.0189 350° North 415 478 40,000  Level Oakland Center
Tue 01:09:31 PM 36.9392 -119.0444 350° North 419 482 40,000  Level Oakland Center
Tue 01:10:32 PM 37.0539 -119.0703 350° North 419 482 40,000  Level Oakland Center
Tue 01:11:34 PM 37.1697 -119.0975 349° North 426 490 40,000  Level Oakland Center
Tue 01:12:35 PM 37.2856 -119.1233 350° North 423 487 40,000  Level Oakland Center
Tue 01:13:36 PM 37.4006 -119.1517 349° North 424 488 40,000  Level Oakland Center
Tue 01:14:38 PM 37.5172 -119.1775 350° North 425 489 40,000  Level Oakland Center
Tue 01:15:39 PM 37.6583 -119.2097 350° North 420 483 40,000  Level Oakland Center
Tue 01:16:40 PM 37.7739 -119.2361 350° North 420 483 40,000  Level Oakland Center
Tue 01:17:42 PM 37.8881 -119.2619 350° North 418 481 40,000  Level Oakland Center
Tue 01:18:43 PM 38.0011 -119.2894 349° North 413 475 40,000  Level Oakland Center
Tue 01:19:45 PM 38.1150 -119.3161 350° North 415 478 40,000  Level Oakland Center
Tue 01:20:46 PM 38.2219 -119.3425 349° North 415 478 40,000  Level Oakland Center
Tue 01:21:47 PM 38.3336 -119.3678 350° North 411 473 40,000  Level Oakland Center
Tue 01:22:49 PM 38.4683 -119.4003 349° North 408 470 40,000  Level Oakland Center
Tue 01:23:50 PM 38.5833 -119.3953 North 414 476 40,000  Level Oakland Center
Tue 01:24:52 PM 38.6997 -119.3542 15° North 429 494 40,000  Level Oakland Center
Tue 01:25:53 PM 38.8144 -119.3111 16° North 430 495 40,000  Level Oakland Center
Tue 01:26:54 PM 38.9308 -119.2697 15° North 431 496 40,000  Level Oakland Center
Tue 01:27:56 PM 39.0469 -119.2275 16° North 432 497 40,000  Level Oakland Center
Tue 01:28:57 PM 39.1628 -119.1853 16° North 431 496 40,000  Level Oakland Center
Tue 01:29:59 PM 39.2778 -119.1447 15° North 428 493 40,000  Level Oakland Center
Tue 01:31:00 PM 39.3928 -119.1008 16° North 426 490 40,000  Level Oakland Center
Tue 01:32:01 PM 39.5081 -119.0592 16° North 425 489 40,000  Level Oakland Center
Tue 01:33:03 PM 39.6233 -119.0139 17° North 427 491 40,000  Level Oakland Center
Tue 01:34:04 PM 39.7356 -118.9425 26° Northeast 444 511 40,000  Level Oakland Center
Tue 01:35:06 PM 39.8489 -118.8772 24° Northeast 442 509 40,000  Level Oakland Center
Tue 01:36:07 PM 39.9822 -118.8311 15° North 414 476 40,000  Level Oakland Center
Tue 01:37:08 PM 40.0958 -118.7897 16° North 419 482 40,000  Level Oakland Center
Tue 01:38:10 PM 40.2086 -118.7508 15° North 419 482 40,000  Level Oakland Center
Tue 01:39:11 PM 40.3200 -118.7100 16° North 416 479 40,000  Level Oakland Center
Tue 01:39:42 PM 40.3817 -118.6886 15° North 418 481 40,000  Level Salt Lake Center
Tue 01:40:43 PM 40.4886 -118.6517 15° North 417 480 40,000  Level Salt Lake Center
Tue 01:41:45 PM 40.6119 -118.6056 16° North 414 476 40,000  Level Salt Lake Center
Tue 01:42:15 PM 40.6550 -118.5917 14° North 414 476 40,000  Level Oakland Center
Tue 01:42:47 PM 40.7178 -118.5678 16° North 411 473 40,000  Level Salt Lake Center
Tue 01:43:48 PM 40.8242 -118.5300 15° North 411 473 40,000  Level Salt Lake Center
Tue 01:44:50 PM 40.9467 -118.4847 16° North 408 470 40,000  Level Salt Lake Center
Tue 01:45:52 PM 41.0506 -118.4478 15° North 405 466 40,000  Level Salt Lake Center
Tue 01:46:54 PM 41.1731 -118.4022 16° North 407 468 40,000  Level Salt Lake Center
Tue 01:47:55 PM 41.2764 -118.3631 16° North 404 465 40,000  Level Salt Lake Center
Tue 01:48:57 PM 41.3800 -118.3261 15° North 402 463 40,000  Level Salt Lake Center
Tue 01:49:59 PM 41.5022 -118.2814 15° North 405 466 40,000  Level Salt Lake Center
Tue 01:51:01 PM 41.6061 -118.2411 16° North 404 465 40,000  Level Salt Lake Center
Tue 01:52:02 PM 41.7264 -118.1961 16° North 401 461 40,000  Level Salt Lake Center
Tue 01:53:04 PM 41.8281 -118.1597 15° North 396 456 40,000  Level Salt Lake Center
Tue 01:54:06 PM 41.9478 -118.1147 16° North 398 458 40,000  Level Salt Lake Center
Tue 01:55:08 PM 42.0508 -118.0742 16° North 401 461 40,000  Level Salt Lake Center
Tue 01:56:09 PM 42.1556 -118.0350 15° North 407 468 40,000  Level Salt Lake Center
Tue 01:57:11 PM 42.2756 -117.9842 17° North 413 475 40,000  Level Salt Lake Center
Tue 01:58:13 PM 42.3831 -117.9453 15° North 413 475 40,000  Level Salt Lake Center
Tue 01:59:15 PM 42.5103 -117.8964 16° North 422 486 40,000  Level Salt Lake Center
Tue 02:00:16 PM 42.6192 -117.8425 20° North 435 501 40,000  Level Salt Lake Center
Tue 02:01:18 PM 42.7367 -117.7342 34° Northeast 457 526 40,000  Level Salt Lake Center
Tue 02:02:20 PM 42.8381 -117.6392 34° Northeast 461 531 40,000  Level Salt Lake Center
Tue 02:03:22 PM 42.9556 -117.5261 35° Northeast 463 533 40,000  Level Salt Lake Center
Tue 02:04:23 PM 43.0567 -117.4283 35° Northeast 465 535 40,000  Level Salt Lake Center
Tue 02:05:25 PM 43.1756 -117.3156 35° Northeast 466 536 40,000  Level Salt Lake Center
Tue 02:06:27 PM 43.2761 -117.2161 36° Northeast 465 535 40,000  Level Salt Lake Center
Tue 02:07:29 PM 43.3789 -117.1172 35° Northeast 470 541 40,000  Level Salt Lake Center
Tue 02:08:30 PM 43.5028 -117.0122 32° Northeast 467 537 40,000  Level Salt Lake Center
Tue 02:09:32 PM 43.6039 -116.9108 36° Northeast 469 540 40,000  Level Salt Lake Center
Tue 02:10:34 PM 43.7236 -116.7950 35° Northeast 470 541 40,000  Level Salt Lake Center
Tue 02:11:36 PM 43.8267 -116.6919 36° Northeast 476 548 40,000  Level Salt Lake Center
Tue 02:12:38 PM 43.9458 -116.5717 36° Northeast 475 547 40,000  Level Salt Lake Center
Tue 02:13:39 PM 44.0472 -116.4703 36° Northeast 470 541 40,000  Level Salt Lake Center
Tue 02:14:41 PM 44.1494 -116.3669 36° Northeast 474 545 40,000  Level Salt Lake Center
Tue 02:15:43 PM 44.2672 -116.2461 36° Northeast 471 542 40,000  Level Salt Lake Center
Tue 02:16:45 PM 44.3681 -116.1433 36° Northeast 473 544 40,000  Level Salt Lake Center
Tue 02:17:47 PM 44.4794 -116.0297 36° Northeast 468 539 40,000  Level Salt Lake Center
Tue 02:18:48 PM 44.5961 -115.9083 37° Northeast 469 540 40,000  Level Salt Lake Center
Tue 02:19:50 PM 44.6969 -115.8044 36° Northeast 469 540 40,000  Level Salt Lake Center
Tue 02:20:52 PM 44.8147 -115.6828 36° Northeast 471 542 40,000  Level Salt Lake Center
Tue 02:21:54 PM 44.9153 -115.5772 37° Northeast 471 542 40,000  Level Salt Lake Center
Tue 02:22:55 PM 45.0153 -115.4722 37° Northeast 469 540 40,000 -49 Level Salt Lake Center
Tue 02:23:57 PM 45.1328 -115.3447 37° Northeast 474 545 39,900 -677 Descending Salt Lake Center
Tue 02:24:59 PM 45.2333 -115.2386 37° Northeast 472 543 38,600 -1,512 Descending Salt Lake Center
Tue 02:26:00 PM 45.3483 -115.1153 37° Northeast 462 532 36,800 -1,853 Descending Salt Lake Center
Tue 02:27:15 PM 45.4633 -114.9922 37° Northeast 463 533 34,400 -2,162 Descending Salt Lake Center
Tue 02:28:16 PM 45.5767 -114.8689 37° Northeast 460 529 31,900 -2,683 Descending Salt Lake Center
Tue 02:29:18 PM 45.6719 -114.7656 37° Northeast 451 519 28,900 -3,194 Descending Salt Lake Center
Tue 02:30:20 PM 45.7875 -114.6672 31° Northeast 433 498 25,300 -3,268 Descending Salt Lake Center
Tue 02:31:21 PM 45.8842 -114.5989 26° Northeast 414 476 22,200 -3,268 Descending Salt Lake Center
Tue 02:32:23 PM 45.9925 -114.5161 28° Northeast 399 459 18,600 -3,000 Descending Salt Lake Center
Tue 02:33:25 PM 46.0733 -114.4508 29° Northeast 391 450 16,000 -2,537 Descending Salt Lake Center
Tue 02:34:26 PM 46.1581 -114.3836 29° Northeast 373 429 13,400 -1,463 Descending Salt Lake Center
Tue 02:35:28 PM 46.2517 -114.3144 27° Northeast 342 394 13,000 -435 Descending Salt Lake Center
Tue 02:36:30 PM 46.3275 -114.2603 26° Northeast 324 373 12,500 -484 Descending Salt Lake Center
Tue 02:37:32 PM 46.4025 -114.2056 27° Northeast 310 357 12,000 -244 Descending Salt Lake Center
Tue 02:38:33 PM 46.4867 -114.1422 27° Northeast 314 361 12,000  Level Salt Lake Center
Tue 02:39:35 PM 46.5633 -114.0817 28° Northeast 315 362 12,000  Level Salt Lake Center
Tue 02:40:37 PM 46.6375 -114.0239 28° Northeast 287 330 12,000  Level Salt Lake Center
Tue 02:41:39 PM 46.7067 -113.9753 26° Northeast 278 320 12,000  Level Salt Lake Center
Tue 02:42:40 PM 46.7764 -113.9686 North 273 314 12,000  Level Salt Lake Center
Tue 02:43:42 PM 46.7528 -114.0528 248° West 261 300 12,000  Level Salt Lake Center
Tue 02:44:43 PM 46.6819 -114.0225 164° South 266 306 12,000 -98 Level Salt Lake Center
Tue 02:45:45 PM 46.6194 -114.0269 183° South 238 274 11,800 -677 Descending Salt Lake Center
Tue 02:46:47 PM 46.5608 -114.0597 201° Southwest 212 244 10,600 -1,073 Descending Salt Lake Center
Tue 02:47:48 PM 46.5108 -114.0875 201° Southwest 195 224 9,600 -1,073 Descending Salt Lake Center
Tue 02:48:50 PM 46.4500 -114.1078 193° South 211 243 8,400 -1,113 Descending Salt Lake Center
Tue 02:49:52 PM 46.3958 -114.1164 186° South 199 229 7,300 -1,065 Descending Salt Lake Center

Login

Don't have an account? Register now (free) for customized features, flight alerts, and more!